createdAt,value
2022-10-31T00:08:26.743Z,45.80
2022-10-31T00:18:30.801Z,47.00
2022-10-31T00:28:34.932Z,50.60
2022-10-31T00:38:38.090Z,42.80
2022-10-31T00:48:41.899Z,43.90
2022-10-31T00:58:45.503Z,41.50
2022-10-31T01:08:48.535Z,45.90
2022-10-31T01:18:53.071Z,43.20
2022-10-31T01:28:58.594Z,45.20
2022-10-31T01:39:05.539Z,46.80
2022-10-31T01:49:12.808Z,41.80
2022-10-31T01:59:20.118Z,45.30
2022-10-31T02:09:25.927Z,38.80
2022-10-31T02:19:33.150Z,37.50
2022-10-31T02:30:10.770Z,43.70
2022-10-31T02:40:13.951Z,46.30
2022-10-31T02:50:23.080Z,43.60
2022-10-31T03:00:27.926Z,44.50
2022-10-31T03:10:32.600Z,41.30
2022-10-31T03:20:41.136Z,41.90
2022-10-31T03:30:46.693Z,41.60
2022-10-31T03:40:54.764Z,38.80
2022-10-31T03:50:59.001Z,35.50
2022-10-31T04:01:06.675Z,34.70
2022-10-31T04:11:12.037Z,39.20
2022-10-31T04:21:15.517Z,43.30
2022-10-31T04:31:19.100Z,47.30
2022-10-31T04:41:22.615Z,40.90
2022-10-31T04:51:26.474Z,39.80
2022-10-31T05:01:29.741Z,36.00
2022-10-31T05:11:33.584Z,35.40
2022-10-31T05:21:43.216Z,45.70
2022-10-31T05:31:46.789Z,37.80
2022-10-31T05:41:50.255Z,41.20
2022-10-31T05:51:54.110Z,33.90
2022-10-31T06:01:57.713Z,38.60
2022-10-31T06:12:01.265Z,33.70
2022-10-31T06:22:04.847Z,38.60
2022-10-31T06:32:12.096Z,42.70
2022-10-31T06:42:16.220Z,36.10
2022-10-31T06:52:19.746Z,32.00
2022-10-31T07:02:23.864Z,40.00
2022-10-31T07:12:27.144Z,35.20
2022-10-31T07:22:33.720Z,35.60
2022-10-31T07:32:39.760Z,36.00
2022-10-31T07:42:46.878Z,35.40
2022-10-31T07:52:59.113Z,32.50
2022-10-31T08:03:04.825Z,32.90
2022-10-31T08:13:10.783Z,27.50
2022-10-31T08:23:14.537Z,28.60
2022-10-31T08:33:19.497Z,28.40
2022-10-31T08:43:22.980Z,22.70
2022-10-31T08:53:27.147Z,22.70
2022-10-31T09:03:32.636Z,23.50
2022-10-31T09:13:40.980Z,27.90
2022-10-31T09:23:45.097Z,28.40
2022-10-31T09:33:48.590Z,21.00
2022-10-31T09:44:08.353Z,22.00
2022-10-31T09:54:16.992Z,21.20
2022-10-31T10:04:31.105Z,17.70
2022-10-31T10:14:43.362Z,15.30
2022-10-31T10:25:08.638Z,19.80
2022-10-31T10:35:18.322Z,14.50
2022-10-31T10:45:39.783Z,19.70
2022-10-31T10:55:49.712Z,18.30
2022-10-31T11:05:55.126Z,19.50
2022-10-31T11:15:58.210Z,19.10
2022-10-31T11:26:04.500Z,17.40
2022-10-31T11:36:16.968Z,16.90
2022-10-31T11:46:21.084Z,19.50
2022-10-31T11:56:25.820Z,18.40
2022-10-31T12:06:28.943Z,18.50
2022-10-31T12:16:32.179Z,16.40
2022-10-31T12:26:38.078Z,19.10
2022-10-31T12:36:44.708Z,16.10
2022-10-31T12:46:53.363Z,16.30
2022-10-31T12:56:55.974Z,21.10
2022-10-31T13:07:03.138Z,13.50
2022-10-31T13:17:07.951Z,12.50
2022-10-31T13:27:12.574Z,17.40
2022-10-31T13:37:16.709Z,16.60
2022-10-31T13:47:21.752Z,15.40
2022-10-31T13:57:33.097Z,17.70
2022-10-31T14:07:43.892Z,16.70
2022-10-31T14:17:51.209Z,14.30
2022-10-31T14:27:55.715Z,15.50
2022-10-31T14:38:06.173Z,18.20
2022-10-31T14:48:12.733Z,17.10
2022-10-31T14:58:18.928Z,24.50
2022-10-31T15:08:44.505Z,18.50
2022-10-31T15:18:51.443Z,27.90
2022-10-31T15:29:03.109Z,24.90
2022-10-31T15:39:10.711Z,27.10
2022-10-31T15:49:16.706Z,26.90
2022-10-31T15:59:22.991Z,26.80
2022-10-31T16:09:27.098Z,30.50
2022-10-31T16:19:33.423Z,34.20
2022-10-31T16:29:42.936Z,32.20
2022-10-31T16:39:47.175Z,34.50
2022-10-31T16:49:51.052Z,41.30
2022-10-31T16:59:54.962Z,41.70
2022-10-31T17:09:58.542Z,41.80
2022-10-31T17:20:02.903Z,49.90
2022-10-31T17:30:08.455Z,54.60
2022-10-31T17:40:14.632Z,46.70
2022-10-31T17:50:19.208Z,55.50
2022-10-31T18:00:23.902Z,67.00
2022-10-31T18:10:27.642Z,78.70
2022-10-31T18:20:31.268Z,91.30
2022-10-31T18:30:38.666Z,105.70
2022-10-31T18:40:42.229Z,101.10
2022-10-31T18:50:47.180Z,113.80
2022-10-31T19:00:51.145Z,119.30
2022-10-31T19:10:54.799Z,148.40
2022-10-31T19:20:58.498Z,147.50
2022-10-31T19:31:02.731Z,151.00
2022-10-31T19:41:08.387Z,193.10
2022-10-31T19:51:13.820Z,222.60
2022-10-31T20:01:19.236Z,197.50
2022-10-31T20:11:24.493Z,201.10
2022-10-31T20:21:29.768Z,195.10
2022-10-31T20:31:36.033Z,183.20
2022-10-31T20:41:39.833Z,172.90
2022-10-31T20:51:43.364Z,177.20
2022-10-31T21:01:46.956Z,163.80
2022-10-31T21:11:50.634Z,149.60
2022-10-31T21:21:53.432Z,153.00
2022-10-31T21:31:57.184Z,144.20
2022-10-31T21:42:00.805Z,127.80
2022-10-31T21:52:04.568Z,133.90
2022-10-31T22:12:15.636Z,113.70
2022-10-31T22:22:19.329Z,111.50
2022-10-31T22:32:23.246Z,111.30
2022-10-31T22:42:27.183Z,100.60
2022-10-31T22:52:30.639Z,134.00
2022-10-31T23:02:34.241Z,114.60
2022-10-31T23:12:55.418Z,118.30
2022-10-31T23:22:59.215Z,111.80
2022-10-31T23:43:06.101Z,102.70
2022-10-31T23:53:09.631Z,97.80
